sensor_id;sensor_type;location;lat;lon;timestamp;pressure;altitude;pressure_sealevel;temperature;humidity
47913;BME280;33676;51.006;17.180;2023-02-18T00:01:52;99946.63;;;8.26;100.00
47913;BME280;33676;51.006;17.180;2023-02-18T00:04:21;99954.75;;;8.23;100.00
47913;BME280;33676;51.006;17.180;2023-02-18T00:06:49;99962.65;;;8.17;100.00
47913;BME280;33676;51.006;17.180;2023-02-18T00:09:17;99962.95;;;8.13;100.00
47913;BME280;33676;51.006;17.180;2023-02-18T00:11:46;99967.58;;;8.09;100.00
47913;BME280;33676;51.006;17.180;2023-02-18T00:14:15;99970.50;;;8.05;100.00
47913;BME280;33676;51.006;17.180;2023-02-18T00:16:45;99970.73;;;8.02;100.00
47913;BME280;33676;51.006;17.180;2023-02-18T00:19:17;99972.60;;;8.00;100.00
47913;BME280;33676;51.006;17.180;2023-02-18T00:25:17;99980.87;;;8.01;100.00
47913;BME280;33676;51.006;17.180;2023-02-18T00:27:45;99984.54;;;7.98;100.00
47913;BME280;33676;51.006;17.180;2023-02-18T00:30:14;99989.32;;;7.97;100.00
47913;BME280;33676;51.006;17.180;2023-02-18T00:32:43;99989.16;;;7.94;100.00
47913;BME280;33676;51.006;17.180;2023-02-18T00:35:11;99990.77;;;7.91;100.00
47913;BME280;33676;51.006;17.180;2023-02-18T00:37:40;99996.12;;;7.87;100.00
47913;BME280;33676;51.006;17.180;2023-02-18T00:40:08;99992.95;;;7.83;100.00
47913;BME280;33676;51.006;17.180;2023-02-18T00:42:37;100006.88;;;7.78;100.00
47913;BME280;33676;51.006;17.180;2023-02-18T00:45:06;100008.57;;;7.79;100.00
47913;BME280;33676;51.006;17.180;2023-02-18T00:47:34;100010.09;;;7.80;100.00
47913;BME280;33676;51.006;17.180;2023-02-18T00:50:03;100009.64;;;7.81;99.06
47913;BME280;33676;51.006;17.180;2023-02-18T00:52:31;100007.53;;;7.81;99.00
47913;BME280;33676;51.006;17.180;2023-02-18T00:55:00;100009.33;;;7.80;98.68
47913;BME280;33676;51.006;17.180;2023-02-18T00:57:28;100011.41;;;7.78;97.83
47913;BME280;33676;51.006;17.180;2023-02-18T00:59:57;100018.84;;;7.76;97.22
47913;BME280;33676;51.006;17.180;2023-02-18T01:02:25;100015.08;;;7.73;96.90
47913;BME280;33676;51.006;17.180;2023-02-18T01:04:53;100019.02;;;7.69;96.45
47913;BME280;33676;51.006;17.180;2023-02-18T01:07:22;100027.23;;;7.66;96.01
47913;BME280;33676;51.006;17.180;2023-02-18T01:09:50;100024.91;;;7.62;95.84
47913;BME280;33676;51.006;17.180;2023-02-18T01:12:19;100027.93;;;7.58;95.61
47913;BME280;33676;51.006;17.180;2023-02-18T01:14:47;100021.42;;;7.54;95.18
47913;BME280;33676;51.006;17.180;2023-02-18T01:17:15;100030.52;;;7.51;95.25
47913;BME280;33676;51.006;17.180;2023-02-18T01:19:44;100026.48;;;7.47;95.27
47913;BME280;33676;51.006;17.180;2023-02-18T01:22:12;100028.23;;;7.42;94.91
47913;BME280;33676;51.006;17.180;2023-02-18T01:24:40;100032.14;;;7.38;94.61
47913;BME280;33676;51.006;17.180;2023-02-18T01:27:09;100037.52;;;7.36;93.78
47913;BME280;33676;51.006;17.180;2023-02-18T01:29:37;100039.90;;;7.37;93.87
47913;BME280;33676;51.006;17.180;2023-02-18T01:32:05;100033.60;;;7.37;93.34
47913;BME280;33676;51.006;17.180;2023-02-18T01:34:34;100038.06;;;7.38;93.25
47913;BME280;33676;51.006;17.180;2023-02-18T01:37:02;100039.46;;;7.38;93.33
47913;BME280;33676;51.006;17.180;2023-02-18T01:39:31;100038.13;;;7.37;92.88
47913;BME280;33676;51.006;17.180;2023-02-18T01:41:59;100036.29;;;7.36;93.04
47913;BME280;33676;51.006;17.180;2023-02-18T01:44:28;100038.50;;;7.31;93.11
47913;BME280;33676;51.006;17.180;2023-02-18T01:46:56;100032.64;;;7.26;92.97
47913;BME280;33676;51.006;17.180;2023-02-18T01:49:33;100034.73;;;7.21;93.13
47913;BME280;33676;51.006;17.180;2023-02-18T01:52:14;100033.05;;;7.15;92.86
47913;BME280;33676;51.006;17.180;2023-02-18T01:54:50;100035.77;;;7.10;93.16
47913;BME280;33676;51.006;17.180;2023-02-18T01:57:29;100036.23;;;7.06;93.56
47913;BME280;33676;51.006;17.180;2023-02-18T02:00:10;100037.59;;;7.02;93.66
47913;BME280;33676;51.006;17.180;2023-02-18T02:02:44;100038.92;;;6.97;94.06
47913;BME280;33676;51.006;17.180;2023-02-18T02:05:13;100034.39;;;6.92;94.36
47913;BME280;33676;51.006;17.180;2023-02-18T02:07:44;100028.55;;;6.89;94.53
47913;BME280;33676;51.006;17.180;2023-02-18T02:10:14;100030.30;;;6.86;94.88
47913;BME280;33676;51.006;17.180;2023-02-18T02:15:41;100027.02;;;6.83;95.41
47913;BME280;33676;51.006;17.180;2023-02-18T02:18:44;100032.63;;;6.82;95.48
47913;BME280;33676;51.006;17.180;2023-02-18T02:21:47;100029.61;;;6.83;95.35
47913;BME280;33676;51.006;17.180;2023-02-18T02:25:10;100026.55;;;6.85;94.57
47913;BME280;33676;51.006;17.180;2023-02-18T02:28:29;100035.48;;;6.89;93.68
47913;BME280;33676;51.006;17.180;2023-02-18T02:37:21;100041.51;;;7.00;91.07
47913;BME280;33676;51.006;17.180;2023-02-18T02:40:19;100038.86;;;7.01;91.32
47913;BME280;33676;51.006;17.180;2023-02-18T02:48:45;100041.33;;;6.87;90.22
47913;BME280;33676;51.006;17.180;2023-02-18T02:52:11;100048.86;;;6.86;88.80
47913;BME280;33676;51.006;17.180;2023-02-18T02:54:40;100042.88;;;6.87;89.00
47913;BME280;33676;51.006;17.180;2023-02-18T03:00:02;100048.73;;;6.83;88.62
47913;BME280;33676;51.006;17.180;2023-02-18T03:06:05;100049.58;;;6.76;88.23
47913;BME280;33676;51.006;17.180;2023-02-18T03:11:19;100048.39;;;6.68;87.65
47913;BME280;33676;51.006;17.180;2023-02-18T03:14:07;100050.80;;;6.65;87.89
47913;BME280;33676;51.006;17.180;2023-02-18T03:16:48;100054.98;;;6.62;87.44
47913;BME280;33676;51.006;17.180;2023-02-18T03:19:53;100052.31;;;6.58;87.46
47913;BME280;33676;51.006;17.180;2023-02-18T03:22:38;100058.67;;;6.54;87.34
47913;BME280;33676;51.006;17.180;2023-02-18T03:25:07;100052.10;;;6.50;87.32
47913;BME280;33676;51.006;17.180;2023-02-18T03:27:48;100053.05;;;6.47;87.15
47913;BME280;33676;51.006;17.180;2023-02-18T03:30:45;100059.48;;;6.44;87.29
47913;BME280;33676;51.006;17.180;2023-02-18T03:33:22;100062.10;;;6.41;86.89
47913;BME280;33676;51.006;17.180;2023-02-18T03:35:53;100065.27;;;6.37;86.80
47913;BME280;33676;51.006;17.180;2023-02-18T03:38:38;100070.42;;;6.36;86.91
47913;BME280;33676;51.006;17.180;2023-02-18T03:41:07;100071.89;;;6.31;86.82
47913;BME280;33676;51.006;17.180;2023-02-18T03:43:35;100073.13;;;6.28;86.81
47913;BME280;33676;51.006;17.180;2023-02-18T03:46:04;100072.65;;;6.25;86.85
47913;BME280;33676;51.006;17.180;2023-02-18T03:48:32;100073.77;;;6.22;87.01
47913;BME280;33676;51.006;17.180;2023-02-18T03:51:01;100081.14;;;6.18;86.68
47913;BME280;33676;51.006;17.180;2023-02-18T03:53:29;100087.52;;;6.15;86.77
47913;BME280;33676;51.006;17.180;2023-02-18T03:55:57;100085.48;;;6.14;86.32
47913;BME280;33676;51.006;17.180;2023-02-18T03:58:26;100093.44;;;6.15;86.03
47913;BME280;33676;51.006;17.180;2023-02-18T04:00:54;100095.79;;;6.16;85.94
47913;BME280;33676;51.006;17.180;2023-02-18T04:03:22;100101.38;;;6.16;86.02
47913;BME280;33676;51.006;17.180;2023-02-18T04:05:51;100104.77;;;6.14;86.34
47913;BME280;33676;51.006;17.180;2023-02-18T04:08:19;100105.83;;;6.11;86.31
47913;BME280;33676;51.006;17.180;2023-02-18T04:10:48;100110.36;;;6.08;86.48
47913;BME280;33676;51.006;17.180;2023-02-18T04:13:16;100108.10;;;6.06;86.29
47913;BME280;33676;51.006;17.180;2023-02-18T04:15:45;100110.96;;;6.04;86.38
47913;BME280;33676;51.006;17.180;2023-02-18T04:18:16;100118.60;;;6.01;86.16
47913;BME280;33676;51.006;17.180;2023-02-18T04:20:45;100117.80;;;6.00;86.28
47913;BME280;33676;51.006;17.180;2023-02-18T04:23:13;100115.45;;;5.99;86.46
47913;BME280;33676;51.006;17.180;2023-02-18T04:25:42;100120.77;;;5.96;86.33
47913;BME280;33676;51.006;17.180;2023-02-18T04:28:13;100117.48;;;5.96;86.25
47913;BME280;33676;51.006;17.180;2023-02-18T04:30:43;100123.44;;;5.96;86.32
47913;BME280;33676;51.006;17.180;2023-02-18T04:33:12;100127.94;;;5.96;86.19
47913;BME280;33676;51.006;17.180;2023-02-18T04:35:41;100122.98;;;5.97;86.35
47913;BME280;33676;51.006;17.180;2023-02-18T04:38:10;100119.47;;;5.98;86.46
47913;BME280;33676;51.006;17.180;2023-02-18T04:40:39;100116.79;;;6.00;86.30
47913;BME280;33676;51.006;17.180;2023-02-18T04:43:07;100119.64;;;6.01;86.54
47913;BME280;33676;51.006;17.180;2023-02-18T04:45:35;100119.92;;;6.02;86.41
47913;BME280;33676;51.006;17.180;2023-02-18T04:48:04;100115.23;;;6.05;86.25
47913;BME280;33676;51.006;17.180;2023-02-18T04:50:33;100116.02;;;6.09;85.79
47913;BME280;33676;51.006;17.180;2023-02-18T04:53:02;100120.70;;;6.15;85.89
47913;BME280;33676;51.006;17.180;2023-02-18T04:55:30;100117.70;;;6.18;85.85
47913;BME280;33676;51.006;17.180;2023-02-18T04:57:58;100116.63;;;6.22;85.58
47913;BME280;33676;51.006;17.180;2023-02-18T05:00:27;100114.69;;;6.27;85.37
47913;BME280;33676;51.006;17.180;2023-02-18T05:02:56;100119.10;;;6.32;85.03
47913;BME280;33676;51.006;17.180;2023-02-18T05:05:25;100115.42;;;6.38;84.97
47913;BME280;33676;51.006;17.180;2023-02-18T05:07:53;100119.98;;;6.42;84.58
47913;BME280;33676;51.006;17.180;2023-02-18T05:10:21;100117.64;;;6.47;84.30
47913;BME280;33676;51.006;17.180;2023-02-18T05:12:50;100127.48;;;6.50;84.04
47913;BME280;33676;51.006;17.180;2023-02-18T05:15:18;100118.83;;;6.52;84.44
47913;BME280;33676;51.006;17.180;2023-02-18T05:17:46;100117.15;;;6.54;83.66
47913;BME280;33676;51.006;17.180;2023-02-18T05:20:15;100121.38;;;6.56;83.66
47913;BME280;33676;51.006;17.180;2023-02-18T05:22:43;100121.31;;;6.57;83.39
47913;BME280;33676;51.006;17.180;2023-02-18T05:25:12;100122.02;;;6.59;83.23
47913;BME280;33676;51.006;17.180;2023-02-18T05:27:40;100118.96;;;6.61;83.55
47913;BME280;33676;51.006;17.180;2023-02-18T05:30:09;100120.33;;;6.61;83.12
47913;BME280;33676;51.006;17.180;2023-02-18T05:32:37;100124.44;;;6.62;82.74
47913;BME280;33676;51.006;17.180;2023-02-18T05:35:06;100133.36;;;6.64;82.26
47913;BME280;33676;51.006;17.180;2023-02-18T05:37:35;100125.56;;;6.67;82.29
47913;BME280;33676;51.006;17.180;2023-02-18T05:40:04;100129.30;;;6.68;82.09
47913;BME280;33676;51.006;17.180;2023-02-18T05:42:33;100129.05;;;6.69;82.08
47913;BME280;33676;51.006;17.180;2023-02-18T05:45:01;100127.08;;;6.70;81.95
47913;BME280;33676;51.006;17.180;2023-02-18T05:47:30;100128.27;;;6.71;81.85
47913;BME280;33676;51.006;17.180;2023-02-18T05:49:58;100122.16;;;6.71;81.62
47913;BME280;33676;51.006;17.180;2023-02-18T05:52:27;100117.37;;;6.73;81.80
47913;BME280;33676;51.006;17.180;2023-02-18T05:54:55;100126.05;;;6.73;81.62
47913;BME280;33676;51.006;17.180;2023-02-18T05:57:24;100131.95;;;6.75;81.14
47913;BME280;33676;51.006;17.180;2023-02-18T05:59:52;100137.44;;;6.79;80.85
47913;BME280;33676;51.006;17.180;2023-02-18T06:02:21;100140.35;;;6.82;80.84
47913;BME280;33676;51.006;17.180;2023-02-18T06:04:49;100132.35;;;6.85;80.60
47913;BME280;33676;51.006;17.180;2023-02-18T06:07:18;100130.34;;;6.86;81.00
47913;BME280;33676;51.006;17.180;2023-02-18T06:09:47;100133.63;;;6.86;80.99
47913;BME280;33676;51.006;17.180;2023-02-18T06:12:16;100143.33;;;6.87;80.80
47913;BME280;33676;51.006;17.180;2023-02-18T06:14:44;100146.48;;;6.89;80.55
47913;BME280;33676;51.006;17.180;2023-02-18T06:17:14;100148.00;;;6.92;80.57
47913;BME280;33676;51.006;17.180;2023-02-18T06:19:44;100151.81;;;6.95;80.29
47913;BME280;33676;51.006;17.180;2023-02-18T06:22:12;100146.75;;;6.98;80.57
47913;BME280;33676;51.006;17.180;2023-02-18T06:24:41;100151.29;;;7.01;80.40
47913;BME280;33676;51.006;17.180;2023-02-18T06:27:09;100144.02;;;7.03;79.58
47913;BME280;33676;51.006;17.180;2023-02-18T06:29:37;100142.64;;;7.05;80.08
47913;BME280;33676;51.006;17.180;2023-02-18T06:32:06;100147.11;;;7.06;80.21
47913;BME280;33676;51.006;17.180;2023-02-18T06:34:34;100144.56;;;7.08;79.87
47913;BME280;33676;51.006;17.180;2023-02-18T06:37:02;100146.30;;;7.11;80.06
47913;BME280;33676;51.006;17.180;2023-02-18T06:39:31;100145.22;;;7.11;80.31
47913;BME280;33676;51.006;17.180;2023-02-18T06:42:01;100141.02;;;7.12;80.35
47913;BME280;33676;51.006;17.180;2023-02-18T06:44:29;100148.79;;;7.12;80.33
47913;BME280;33676;51.006;17.180;2023-02-18T06:46:58;100149.23;;;7.14;80.46
47913;BME280;33676;51.006;17.180;2023-02-18T06:49:27;100147.15;;;7.13;80.35
47913;BME280;33676;51.006;17.180;2023-02-18T06:51:55;100150.69;;;7.15;80.21
47913;BME280;33676;51.006;17.180;2023-02-18T06:54:23;100151.29;;;7.17;80.13
47913;BME280;33676;51.006;17.180;2023-02-18T06:56:52;100152.59;;;7.18;80.51
47913;BME280;33676;51.006;17.180;2023-02-18T06:59:21;100155.98;;;7.20;80.59
47913;BME280;33676;51.006;17.180;2023-02-18T07:01:49;100153.20;;;7.19;80.84
47913;BME280;33676;51.006;17.180;2023-02-18T07:04:17;100161.46;;;7.21;80.55
47913;BME280;33676;51.006;17.180;2023-02-18T07:06:46;100153.04;;;7.22;80.45
47913;BME280;33676;51.006;17.180;2023-02-18T07:09:15;100153.64;;;7.23;80.72
47913;BME280;33676;51.006;17.180;2023-02-18T07:11:43;100159.13;;;7.24;80.41
47913;BME280;33676;51.006;17.180;2023-02-18T07:14:14;100162.62;;;7.27;80.04
47913;BME280;33676;51.006;17.180;2023-02-18T07:16:42;100162.25;;;7.29;80.25
47913;BME280;33676;51.006;17.180;2023-02-18T07:19:11;100165.92;;;7.32;80.58
47913;BME280;33676;51.006;17.180;2023-02-18T07:21:42;100158.33;;;7.34;80.67
47913;BME280;33676;51.006;17.180;2023-02-18T07:24:10;100158.41;;;7.35;80.44
47913;BME280;33676;51.006;17.180;2023-02-18T07:26:39;100163.39;;;7.36;80.13
47913;BME280;33676;51.006;17.180;2023-02-18T07:29:08;100162.78;;;7.37;80.32
47913;BME280;33676;51.006;17.180;2023-02-18T07:31:36;100156.96;;;7.38;80.48
47913;BME280;33676;51.006;17.180;2023-02-18T07:34:06;100163.41;;;7.38;80.30
47913;BME280;33676;51.006;17.180;2023-02-18T07:36:34;100158.10;;;7.40;80.46
47913;BME280;33676;51.006;17.180;2023-02-18T07:39:03;100161.39;;;7.42;80.37
47913;BME280;33676;51.006;17.180;2023-02-18T07:41:31;100165.90;;;7.45;80.40
47913;BME280;33676;51.006;17.180;2023-02-18T07:43:59;100166.39;;;7.48;80.14
47913;BME280;33676;51.006;17.180;2023-02-18T07:46:28;100164.60;;;7.51;80.10
47913;BME280;33676;51.006;17.180;2023-02-18T07:48:57;100168.57;;;7.54;80.29
47913;BME280;33676;51.006;17.180;2023-02-18T07:51:25;100171.41;;;7.59;80.24
47913;BME280;33676;51.006;17.180;2023-02-18T07:53:55;100167.63;;;7.63;80.05
47913;BME280;33676;51.006;17.180;2023-02-18T07:56:24;100178.27;;;7.69;79.86
47913;BME280;33676;51.006;17.180;2023-02-18T07:58:52;100180.35;;;7.74;79.98
47913;BME280;33676;51.006;17.180;2023-02-18T08:01:21;100175.55;;;7.78;80.10
47913;BME280;33676;51.006;17.180;2023-02-18T08:03:49;100173.02;;;7.81;79.88
47913;BME280;33676;51.006;17.180;2023-02-18T08:06:35;100169.75;;;7.85;80.02
47913;BME280;33676;51.006;17.180;2023-02-18T08:09:05;100171.55;;;7.90;80.03
47913;BME280;33676;51.006;17.180;2023-02-18T08:11:34;100173.14;;;7.94;79.92
47913;BME280;33676;51.006;17.180;2023-02-18T08:14:16;100172.54;;;7.98;79.58
47913;BME280;33676;51.006;17.180;2023-02-18T08:16:45;100165.13;;;8.03;79.36
47913;BME280;33676;51.006;17.180;2023-02-18T08:19:13;100172.27;;;8.07;79.45
47913;BME280;33676;51.006;17.180;2023-02-18T08:21:42;100171.36;;;8.10;79.53
47913;BME280;33676;51.006;17.180;2023-02-18T08:24:10;100179.25;;;8.14;79.84
47913;BME280;33676;51.006;17.180;2023-02-18T08:26:39;100176.03;;;8.18;79.38
47913;BME280;33676;51.006;17.180;2023-02-18T08:29:26;100181.42;;;8.23;79.63
47913;BME280;33676;51.006;17.180;2023-02-18T08:31:57;100182.83;;;8.28;79.79
47913;BME280;33676;51.006;17.180;2023-02-18T08:34:26;100181.62;;;8.33;79.55
47913;BME280;33676;51.006;17.180;2023-02-18T08:36:55;100178.71;;;8.37;79.85
47913;BME280;33676;51.006;17.180;2023-02-18T08:39:24;100178.11;;;8.41;79.86
47913;BME280;33676;51.006;17.180;2023-02-18T08:41:52;100171.91;;;8.45;79.56
47913;BME280;33676;51.006;17.180;2023-02-18T08:44:21;100175.86;;;8.50;79.98
47913;BME280;33676;51.006;17.180;2023-02-18T08:46:51;100167.25;;;8.54;79.84
47913;BME280;33676;51.006;17.180;2023-02-18T08:49:20;100169.70;;;8.56;79.25
47913;BME280;33676;51.006;17.180;2023-02-18T08:51:51;100162.33;;;8.59;79.72
47913;BME280;33676;51.006;17.180;2023-02-18T08:54:19;100166.45;;;8.62;80.01
47913;BME280;33676;51.006;17.180;2023-02-18T08:56:48;100187.80;;;8.64;77.78
47913;BME280;33676;51.006;17.180;2023-02-18T08:59:16;100182.77;;;8.63;76.54
47913;BME280;33676;51.006;17.180;2023-02-18T09:01:45;100172.95;;;8.61;76.58
47913;BME280;33676;51.006;17.180;2023-02-18T09:04:13;100170.36;;;8.59;76.85
47913;BME280;33676;51.006;17.180;2023-02-18T09:06:42;100179.73;;;8.54;76.23
47913;BME280;33676;51.006;17.180;2023-02-18T09:09:10;100177.13;;;8.52;77.13
47913;BME280;33676;51.006;17.180;2023-02-18T09:11:38;100195.64;;;8.49;76.81
47913;BME280;33676;51.006;17.180;2023-02-18T09:14:07;100186.84;;;8.45;76.45
47913;BME280;33676;51.006;17.180;2023-02-18T09:16:35;100182.77;;;8.41;76.41
47913;BME280;33676;51.006;17.180;2023-02-18T09:19:06;100174.61;;;8.39;76.93
47913;BME280;33676;51.006;17.180;2023-02-18T09:21:34;100175.82;;;8.36;77.75
47913;BME280;33676;51.006;17.180;2023-02-18T09:24:03;100177.23;;;8.36;77.24
47913;BME280;33676;51.006;17.180;2023-02-18T09:26:31;100166.95;;;8.36;77.38
47913;BME280;33676;51.006;17.180;2023-02-18T09:29:00;100169.11;;;8.38;77.51
47913;BME280;33676;51.006;17.180;2023-02-18T09:31:28;100170.84;;;8.40;77.36
47913;BME280;33676;51.006;17.180;2023-02-18T09:34:01;100173.20;;;8.41;77.07
47913;BME280;33676;51.006;17.180;2023-02-18T09:36:29;100174.30;;;8.43;77.21
47913;BME280;33676;51.006;17.180;2023-02-18T09:38:58;100175.22;;;8.45;76.46
47913;BME280;33676;51.006;17.180;2023-02-18T09:41:46;100174.92;;;8.46;76.86
47913;BME280;33676;51.006;17.180;2023-02-18T09:47:39;100164.14;;;8.49;76.59
47913;BME280;33676;51.006;17.180;2023-02-18T09:50:32;100158.49;;;8.54;77.01
47913;BME280;33676;51.006;17.180;2023-02-18T09:53:03;100156.05;;;8.59;76.98
47913;BME280;33676;51.006;17.180;2023-02-18T09:55:36;100157.80;;;8.64;77.55
47913;BME280;33676;51.006;17.180;2023-02-18T09:58:33;100150.59;;;8.68;77.81
47913;BME280;33676;51.006;17.180;2023-02-18T10:03:39;100146.54;;;8.68;78.69
47913;BME280;33676;51.006;17.180;2023-02-18T10:06:15;100149.39;;;8.70;78.96
47913;BME280;33676;51.006;17.180;2023-02-18T10:08:48;100137.23;;;8.69;79.46
47913;BME280;33676;51.006;17.180;2023-02-18T10:11:28;100146.70;;;8.69;80.05
47913;BME280;33676;51.006;17.180;2023-02-18T10:13:59;100142.09;;;8.65;80.02
47913;BME280;33676;51.006;17.180;2023-02-18T10:16:30;100139.94;;;8.58;80.01
47913;BME280;33676;51.006;17.180;2023-02-18T10:19:03;100137.79;;;8.52;80.35
47913;BME280;33676;51.006;17.180;2023-02-18T10:21:33;100136.54;;;8.47;80.68
47913;BME280;33676;51.006;17.180;2023-02-18T10:24:26;100129.98;;;8.44;80.89
47913;BME280;33676;51.006;17.180;2023-02-18T10:26:57;100121.53;;;8.40;81.34
47913;BME280;33676;51.006;17.180;2023-02-18T10:29:26;100115.96;;;8.38;81.82
47913;BME280;33676;51.006;17.180;2023-02-18T10:32:26;100113.19;;;8.35;82.45
47913;BME280;33676;51.006;17.180;2023-02-18T10:35:14;100111.08;;;8.30;83.02
47913;BME280;33676;51.006;17.180;2023-02-18T10:38:17;100114.27;;;8.22;83.79
47913;BME280;33676;51.006;17.180;2023-02-18T10:41:05;100105.64;;;8.09;84.69
47913;BME280;33676;51.006;17.180;2023-02-18T10:43:46;100102.13;;;7.97;85.29
47913;BME280;33676;51.006;17.180;2023-02-18T10:47:14;100090.92;;;7.85;85.75
47913;BME280;33676;51.006;17.180;2023-02-18T10:49:58;100080.82;;;7.76;86.50
47913;BME280;33676;51.006;17.180;2023-02-18T10:52:41;100071.66;;;7.73;86.73
47913;BME280;33676;51.006;17.180;2023-02-18T10:55:16;100059.77;;;7.71;87.09
47913;BME280;33676;51.006;17.180;2023-02-18T10:57:51;100058.96;;;7.70;87.46
47913;BME280;33676;51.006;17.180;2023-02-18T11:00:26;100051.17;;;7.69;87.77
47913;BME280;33676;51.006;17.180;2023-02-18T11:03:24;100044.14;;;7.66;87.85
47913;BME280;33676;51.006;17.180;2023-02-18T11:05:56;100040.04;;;7.62;88.19
47913;BME280;33676;51.006;17.180;2023-02-18T11:08:31;100036.64;;;7.61;88.47
47913;BME280;33676;51.006;17.180;2023-02-18T11:11:22;100027.86;;;7.59;88.28
47913;BME280;33676;51.006;17.180;2023-02-18T11:13:55;100024.55;;;7.60;88.56
47913;BME280;33676;51.006;17.180;2023-02-18T11:16:40;100020.17;;;7.60;88.55
47913;BME280;33676;51.006;17.180;2023-02-18T11:19:34;100013.86;;;7.63;88.86
47913;BME280;33676;51.006;17.180;2023-02-18T11:22:31;100011.61;;;7.68;89.05
47913;BME280;33676;51.006;17.180;2023-02-18T11:25:03;100005.66;;;7.74;89.22
47913;BME280;33676;51.006;17.180;2023-02-18T11:27:41;100001.80;;;7.79;89.44
47913;BME280;33676;51.006;17.180;2023-02-18T11:30:36;99994.79;;;7.84;89.69
47913;BME280;33676;51.006;17.180;2023-02-18T11:33:20;99997.03;;;7.89;89.70
47913;BME280;33676;51.006;17.180;2023-02-18T11:35:54;99987.41;;;7.92;89.77
47913;BME280;33676;51.006;17.180;2023-02-18T11:38:33;99971.52;;;7.93;89.75
47913;BME280;33676;51.006;17.180;2023-02-18T11:41:09;99961.16;;;7.96;89.81
47913;BME280;33676;51.006;17.180;2023-02-18T11:43:46;99959.59;;;7.99;89.91
47913;BME280;33676;51.006;17.180;2023-02-18T11:46:26;99952.18;;;8.03;89.94
47913;BME280;33676;51.006;17.180;2023-02-18T11:49:20;99942.52;;;8.07;90.07
47913;BME280;33676;51.006;17.180;2023-02-18T11:51:50;99936.11;;;8.11;90.36
47913;BME280;33676;51.006;17.180;2023-02-18T11:54:26;99925.89;;;8.15;90.54
47913;BME280;33676;51.006;17.180;2023-02-18T11:57:00;99913.58;;;8.21;90.79
47913;BME280;33676;51.006;17.180;2023-02-18T11:59:36;99909.30;;;8.29;90.99
47913;BME280;33676;51.006;17.180;2023-02-18T12:02:36;99893.11;;;8.34;90.94
47913;BME280;33676;51.006;17.180;2023-02-18T12:05:23;99886.19;;;8.39;90.83
47913;BME280;33676;51.006;17.180;2023-02-18T12:08:00;99883.31;;;8.40;90.84
47913;BME280;33676;51.006;17.180;2023-02-18T12:11:03;99879.41;;;8.41;90.90
47913;BME280;33676;51.006;17.180;2023-02-18T12:14:21;99875.85;;;8.39;90.98
47913;BME280;33676;51.006;17.180;2023-02-18T12:17:16;99859.58;;;8.38;91.32
47913;BME280;33676;51.006;17.180;2023-02-18T12:23:34;99848.27;;;8.26;91.84
47913;BME280;33676;51.006;17.180;2023-02-18T12:26:21;99834.59;;;8.16;92.06
47913;BME280;33676;51.006;17.180;2023-02-18T12:41:40;99800.55;;;8.03;94.09
47913;BME280;33676;51.006;17.180;2023-02-18T12:47:29;99783.61;;;7.92;94.48
47913;BME280;33676;51.006;17.180;2023-02-18T12:50:18;99766.17;;;7.93;94.99
47913;BME280;33676;51.006;17.180;2023-02-18T12:56:40;99769.14;;;7.95;95.78
47913;BME280;33676;51.006;17.180;2023-02-18T13:09:27;99708.95;;;8.02;97.04
47913;BME280;33676;51.006;17.180;2023-02-18T13:12:26;99707.52;;;8.04;97.06
47913;BME280;33676;51.006;17.180;2023-02-18T13:18:08;99690.29;;;8.02;97.45
47913;BME280;33676;51.006;17.180;2023-02-18T13:20:55;99678.78;;;8.00;97.43
47913;BME280;33676;51.006;17.180;2023-02-18T13:23:32;99677.38;;;7.98;97.52
47913;BME280;33676;51.006;17.180;2023-02-18T13:26:12;99663.80;;;7.96;97.74
47913;BME280;33676;51.006;17.180;2023-02-18T13:28:48;99653.73;;;7.95;98.07
47913;BME280;33676;51.006;17.180;2023-02-18T13:31:57;99641.25;;;7.97;98.36
47913;BME280;33676;51.006;17.180;2023-02-18T13:37:52;99622.17;;;8.08;98.96
47913;BME280;33676;51.006;17.180;2023-02-18T13:40:27;99615.50;;;8.15;99.06
47913;BME280;33676;51.006;17.180;2023-02-18T13:43:36;99602.32;;;8.19;99.06
47913;BME280;33676;51.006;17.180;2023-02-18T13:48:47;99598.98;;;8.25;99.21
47913;BME280;33676;51.006;17.180;2023-02-18T13:51:39;99591.09;;;8.29;99.33
47913;BME280;33676;51.006;17.180;2023-02-18T14:05:14;99565.71;;;8.15;99.59
47913;BME280;33676;51.006;17.180;2023-02-18T14:08:04;99560.86;;;8.12;99.56
47913;BME280;33676;51.006;17.180;2023-02-18T14:10:35;99557.55;;;8.10;99.79
47913;BME280;33676;51.006;17.180;2023-02-18T14:13:37;99555.60;;;8.09;99.94
47913;BME280;33676;51.006;17.180;2023-02-18T14:16:09;99548.98;;;8.09;100.00
47913;BME280;33676;51.006;17.180;2023-02-18T14:26:28;99514.77;;;8.05;100.00
47913;BME280;33676;51.006;17.180;2023-02-18T14:29:16;99508.96;;;8.06;100.00
47913;BME280;33676;51.006;17.180;2023-02-18T14:31:53;99501.22;;;8.07;100.00
47913;BME280;33676;51.006;17.180;2023-02-18T14:37:19;99484.27;;;8.11;100.00
47913;BME280;33676;51.006;17.180;2023-02-18T14:43:17;99476.98;;;8.10;100.00
47913;BME280;33676;51.006;17.180;2023-02-18T14:46:08;99472.23;;;8.11;100.00
47913;BME280;33676;51.006;17.180;2023-02-18T14:49:23;99465.38;;;8.14;100.00
47913;BME280;33676;51.006;17.180;2023-02-18T14:51:56;99468.39;;;8.17;100.00
47913;BME280;33676;51.006;17.180;2023-02-18T14:54:27;99463.98;;;8.22;100.00
47913;BME280;33676;51.006;17.180;2023-02-18T14:57:03;99461.38;;;8.28;100.00
47913;BME280;33676;51.006;17.180;2023-02-18T14:59:38;99458.81;;;8.34;100.00
47913;BME280;33676;51.006;17.180;2023-02-18T15:02:35;99459.01;;;8.38;100.00
47913;BME280;33676;51.006;17.180;2023-02-18T15:05:36;99465.13;;;8.44;100.00
47913;BME280;33676;51.006;17.180;2023-02-18T15:08:19;99462.98;;;8.49;100.00
47913;BME280;33676;51.006;17.180;2023-02-18T15:11:06;99463.96;;;8.56;100.00